<?xml version="1.0" encoding="UTF-8" standalone="no" ?>
<gpx xmlns="http://www.topografix.com/GPX/1/1" xmlns:xsi="http://www.w3.org/2001/XMLSchema-instance" xsi:schemaLocation="http://www.topografix.com/GPX/1/1 http://www.topografix.com/GPX/1/1/gpx.xsd" version="1.1" creator="VisuGPX - https://www.visugpx.com">
  <metadata>
    <name>GRPVannesJ6_J11</name>
    <desc><![CDATA[gnerando idor: 12438601_12438612_12438617_12438628_12438643_12438715]]></desc>
  </metadata>
  <trk>
    <name><![CDATA[GRPvannesJ11_MolacKercohan_20.3km-12438715]]></name>
    <extensions>
      <line xmlns="http://www.topografix.com/GPX/gpx_style/0/2">
        <color>FFFF00</color>
        <width>4</width>
      </line>
    </extensions>
    <trkseg>
      <trkpt lat="47.73236" lon="-2.50648">
        <ele>40</ele>
        <time>2023-10-30T18:02:00Z</time>
      </trkpt>
      <trkpt lat="47.73229" lon="-2.50592">
        <ele>40</ele>
        <time>2023-10-30T18:02:51Z</time>
      </trkpt>
      <trkpt lat="47.73202" lon="-2.50552">
        <ele>40</ele>
        <time>2023-10-30T18:03:42Z</time>
      </trkpt>
      <trkpt lat="47.73188" lon="-2.50537">
        <ele>41</ele>
        <time>2023-10-30T18:04:05Z</time>
      </trkpt>
      <trkpt lat="47.73156" lon="-2.50462">
        <ele>42</ele>
        <time>2023-10-30T18:05:25Z</time>
      </trkpt>
      <trkpt lat="47.7312" lon="-2.50466">
        <ele>45</ele>
        <time>2023-10-30T18:06:13Z</time>
      </trkpt>
      <trkpt lat="47.73112" lon="-2.50477">
        <ele>47</ele>
        <time>2023-10-30T18:06:27Z</time>
      </trkpt>
      <trkpt lat="47.73092" lon="-2.50478">
        <ele>48</ele>
        <time>2023-10-30T18:06:54Z</time>
      </trkpt>
      <trkpt lat="47.7306" lon="-2.505">
        <ele>52</ele>
        <time>2023-10-30T18:07:41Z</time>
      </trkpt>
      <trkpt lat="47.73051" lon="-2.50521">
        <ele>53</ele>
        <time>2023-10-30T18:08:04Z</time>
      </trkpt>
      <trkpt lat="47.73017" lon="-2.50528">
        <ele>57</ele>
        <time>2023-10-30T18:08:49Z</time>
      </trkpt>
      <trkpt lat="47.72984" lon="-2.50555">
        <ele>61</ele>
        <time>2023-10-30T18:09:40Z</time>
      </trkpt>
      <trkpt lat="47.72975" lon="-2.50532">
        <ele>60</ele>
        <time>2023-10-30T18:10:04Z</time>
      </trkpt>
      <trkpt lat="47.72964" lon="-2.50521">
        <ele>60</ele>
        <time>2023-10-30T18:10:21Z</time>
      </trkpt>
      <trkpt lat="47.72941" lon="-2.50514">
        <ele>59</ele>
        <time>2023-10-30T18:10:53Z</time>
      </trkpt>
      <trkpt lat="47.72943" lon="-2.50514">
        <ele>59</ele>
        <time>2023-10-30T18:10:55Z</time>
      </trkpt>
      <trkpt lat="47.72936" lon="-2.50516">
        <ele>60</ele>
        <time>2023-10-30T18:11:05Z</time>
      </trkpt>
      <trkpt lat="47.72919" lon="-2.50492">
        <ele>59</ele>
        <time>2023-10-30T18:11:36Z</time>
      </trkpt>
      <trkpt lat="47.72902" lon="-2.50489">
        <ele>58</ele>
        <time>2023-10-30T18:11:59Z</time>
      </trkpt>
      <trkpt lat="47.72879" lon="-2.50502">
        <ele>58</ele>
        <time>2023-10-30T18:12:32Z</time>
      </trkpt>
      <trkpt lat="47.72864" lon="-2.50532">
        <ele>59</ele>
        <time>2023-10-30T18:13:05Z</time>
      </trkpt>
      <trkpt lat="47.72819" lon="-2.50562">
        <ele>60</ele>
        <time>2023-10-30T18:14:11Z</time>
      </trkpt>
      <trkpt lat="47.72762" lon="-2.50586">
        <ele>59</ele>
        <time>2023-10-30T18:15:30Z</time>
      </trkpt>
      <trkpt lat="47.72682" lon="-2.50579">
        <ele>58</ele>
        <time>2023-10-30T18:17:17Z</time>
      </trkpt>
      <trkpt lat="47.72582" lon="-2.50578">
        <ele>58</ele>
        <time>2023-10-30T18:19:30Z</time>
      </trkpt>
      <trkpt lat="47.72523" lon="-2.50591">
        <ele>58</ele>
        <time>2023-10-30T18:20:50Z</time>
      </trkpt>
      <trkpt lat="47.7248" lon="-2.50604">
        <ele>59</ele>
        <time>2023-10-30T18:21:49Z</time>
      </trkpt>
      <trkpt lat="47.72316" lon="-2.50586">
        <ele>61</ele>
        <time>2023-10-30T18:25:28Z</time>
      </trkpt>
      <trkpt lat="47.72252" lon="-2.50582">
        <ele>62</ele>
        <time>2023-10-30T18:26:54Z</time>
      </trkpt>
      <trkpt lat="47.72224" lon="-2.50596">
        <ele>62</ele>
        <time>2023-10-30T18:27:33Z</time>
      </trkpt>
      <trkpt lat="47.72122" lon="-2.50586">
        <ele>60</ele>
        <time>2023-10-30T18:29:49Z</time>
      </trkpt>
      <trkpt lat="47.72122" lon="-2.50608">
        <ele>61</ele>
        <time>2023-10-30T18:30:09Z</time>
      </trkpt>
      <trkpt lat="47.72117" lon="-2.50636">
        <ele>62</ele>
        <time>2023-10-30T18:30:35Z</time>
      </trkpt>
      <trkpt lat="47.72123" lon="-2.5071">
        <ele>64</ele>
        <time>2023-10-30T18:31:42Z</time>
      </trkpt>
      <trkpt lat="47.72138" lon="-2.5082">
        <ele>69</ele>
        <time>2023-10-30T18:33:23Z</time>
      </trkpt>
      <trkpt lat="47.72147" lon="-2.50929">
        <ele>70</ele>
        <time>2023-10-30T18:35:01Z</time>
      </trkpt>
      <trkpt lat="47.72144" lon="-2.50972">
        <ele>70</ele>
        <time>2023-10-30T18:35:40Z</time>
      </trkpt>
      <trkpt lat="47.72127" lon="-2.51012">
        <ele>70</ele>
        <time>2023-10-30T18:36:23Z</time>
      </trkpt>
      <trkpt lat="47.72127" lon="-2.51061">
        <ele>70</ele>
        <time>2023-10-30T18:37:07Z</time>
      </trkpt>
      <trkpt lat="47.72136" lon="-2.51112">
        <ele>70</ele>
        <time>2023-10-30T18:37:54Z</time>
      </trkpt>
      <trkpt lat="47.72135" lon="-2.51138">
        <ele>70</ele>
        <time>2023-10-30T18:38:17Z</time>
      </trkpt>
      <trkpt lat="47.72095" lon="-2.51176">
        <ele>69</ele>
        <time>2023-10-30T18:39:21Z</time>
      </trkpt>
      <trkpt lat="47.7207" lon="-2.51191">
        <ele>69</ele>
        <time>2023-10-30T18:39:57Z</time>
      </trkpt>
      <trkpt lat="47.7207" lon="-2.51176">
        <ele>70</ele>
        <time>2023-10-30T18:40:10Z</time>
      </trkpt>
      <trkpt lat="47.72035" lon="-2.51079">
        <ele>71</ele>
        <time>2023-10-30T18:41:49Z</time>
      </trkpt>
      <trkpt lat="47.72027" lon="-2.51033">
        <ele>70</ele>
        <time>2023-10-30T18:42:32Z</time>
      </trkpt>
      <trkpt lat="47.72029" lon="-2.51007">
        <ele>70</ele>
        <time>2023-10-30T18:42:55Z</time>
      </trkpt>
      <trkpt lat="47.72015" lon="-2.50994">
        <ele>69</ele>
        <time>2023-10-30T18:43:17Z</time>
      </trkpt>
      <trkpt lat="47.72017" lon="-2.50949">
        <ele>68</ele>
        <time>2023-10-30T18:43:58Z</time>
      </trkpt>
      <trkpt lat="47.72014" lon="-2.50937">
        <ele>68</ele>
        <time>2023-10-30T18:44:09Z</time>
      </trkpt>
      <trkpt lat="47.72016" lon="-2.50892">
        <ele>66</ele>
        <time>2023-10-30T18:44:50Z</time>
      </trkpt>
      <trkpt lat="47.71993" lon="-2.5084">
        <ele>62</ele>
        <time>2023-10-30T18:45:46Z</time>
      </trkpt>
      <trkpt lat="47.71978" lon="-2.50812">
        <ele>60</ele>
        <time>2023-10-30T18:46:18Z</time>
      </trkpt>
      <trkpt lat="47.71963" lon="-2.50811">
        <ele>60</ele>
        <time>2023-10-30T18:46:38Z</time>
      </trkpt>
      <trkpt lat="47.71915" lon="-2.50908">
        <ele>62</ele>
        <time>2023-10-30T18:48:26Z</time>
      </trkpt>
      <trkpt lat="47.71905" lon="-2.50942">
        <ele>64</ele>
        <time>2023-10-30T18:48:59Z</time>
      </trkpt>
      <trkpt lat="47.71885" lon="-2.50964">
        <ele>65</ele>
        <time>2023-10-30T18:49:32Z</time>
      </trkpt>
      <trkpt lat="47.71856" lon="-2.50986">
        <ele>66</ele>
        <time>2023-10-30T18:50:16Z</time>
      </trkpt>
      <trkpt lat="47.71843" lon="-2.50985">
        <ele>66</ele>
        <time>2023-10-30T18:50:33Z</time>
      </trkpt>
      <trkpt lat="47.71825" lon="-2.50963">
        <ele>66</ele>
        <time>2023-10-30T18:51:04Z</time>
      </trkpt>
      <trkpt lat="47.71804" lon="-2.50948">
        <ele>67</ele>
        <time>2023-10-30T18:51:35Z</time>
      </trkpt>
      <trkpt lat="47.71786" lon="-2.50946">
        <ele>68</ele>
        <time>2023-10-30T18:51:59Z</time>
      </trkpt>
      <trkpt lat="47.71747" lon="-2.50936">
        <ele>71</ele>
        <time>2023-10-30T18:52:52Z</time>
      </trkpt>
      <trkpt lat="47.71696" lon="-2.5093">
        <ele>73</ele>
        <time>2023-10-30T18:54:01Z</time>
      </trkpt>
      <trkpt lat="47.71649" lon="-2.5093">
        <ele>76</ele>
        <time>2023-10-30T18:55:03Z</time>
      </trkpt>
      <trkpt lat="47.71603" lon="-2.50958">
        <ele>79</ele>
        <time>2023-10-30T18:56:10Z</time>
      </trkpt>
      <trkpt lat="47.71559" lon="-2.50962">
        <ele>81</ele>
        <time>2023-10-30T18:57:08Z</time>
      </trkpt>
      <trkpt lat="47.71518" lon="-2.5096">
        <ele>82</ele>
        <time>2023-10-30T18:58:03Z</time>
      </trkpt>
      <trkpt lat="47.71472" lon="-2.50949">
        <ele>81</ele>
        <time>2023-10-30T18:59:05Z</time>
      </trkpt>
      <trkpt lat="47.71398" lon="-2.50952">
        <ele>78</ele>
        <time>2023-10-30T19:00:44Z</time>
      </trkpt>
      <trkpt lat="47.71392" lon="-2.50969">
        <ele>77</ele>
        <time>2023-10-30T19:01:01Z</time>
      </trkpt>
      <trkpt lat="47.71381" lon="-2.50988">
        <ele>77</ele>
        <time>2023-10-30T19:01:24Z</time>
      </trkpt>
      <trkpt lat="47.71369" lon="-2.50993">
        <ele>77</ele>
        <time>2023-10-30T19:01:40Z</time>
      </trkpt>
      <trkpt lat="47.71329" lon="-2.51">
        <ele>78</ele>
        <time>2023-10-30T19:02:34Z</time>
      </trkpt>
      <trkpt lat="47.71234" lon="-2.51008">
        <ele>87</ele>
        <time>2023-10-30T19:04:41Z</time>
      </trkpt>
      <trkpt lat="47.71213" lon="-2.51032">
        <ele>88</ele>
        <time>2023-10-30T19:05:17Z</time>
      </trkpt>
      <trkpt lat="47.71162" lon="-2.51114">
        <ele>91</ele>
        <time>2023-10-30T19:06:57Z</time>
      </trkpt>
      <trkpt lat="47.7113" lon="-2.51183">
        <ele>88</ele>
        <time>2023-10-30T19:08:12Z</time>
      </trkpt>
      <trkpt lat="47.71086" lon="-2.51209">
        <ele>86</ele>
        <time>2023-10-30T19:09:15Z</time>
      </trkpt>
      <trkpt lat="47.71032" lon="-2.51221">
        <ele>84</ele>
        <time>2023-10-30T19:10:28Z</time>
      </trkpt>
      <trkpt lat="47.71013" lon="-2.51238">
        <ele>82</ele>
        <time>2023-10-30T19:10:58Z</time>
      </trkpt>
      <trkpt lat="47.71006" lon="-2.51284">
        <ele>80</ele>
        <time>2023-10-30T19:11:40Z</time>
      </trkpt>
      <trkpt lat="47.70997" lon="-2.5132">
        <ele>79</ele>
        <time>2023-10-30T19:12:15Z</time>
      </trkpt>
      <trkpt lat="47.70966" lon="-2.5135">
        <ele>80</ele>
        <time>2023-10-30T19:13:04Z</time>
      </trkpt>
      <trkpt lat="47.70932" lon="-2.51365">
        <ele>81</ele>
        <time>2023-10-30T19:13:51Z</time>
      </trkpt>
      <trkpt lat="47.70908" lon="-2.51335">
        <ele>81</ele>
        <time>2023-10-30T19:14:33Z</time>
      </trkpt>
      <trkpt lat="47.7089" lon="-2.51256">
        <ele>80</ele>
        <time>2023-10-30T19:15:48Z</time>
      </trkpt>
      <trkpt lat="47.70877" lon="-2.51185">
        <ele>81</ele>
        <time>2023-10-30T19:16:54Z</time>
      </trkpt>
      <trkpt lat="47.70872" lon="-2.51146">
        <ele>82</ele>
        <time>2023-10-30T19:17:30Z</time>
      </trkpt>
      <trkpt lat="47.70873" lon="-2.51078">
        <ele>85</ele>
        <time>2023-10-30T19:18:31Z</time>
      </trkpt>
      <trkpt lat="47.70848" lon="-2.51027">
        <ele>90</ele>
        <time>2023-10-30T19:19:27Z</time>
      </trkpt>
      <trkpt lat="47.70815" lon="-2.51003">
        <ele>94</ele>
        <time>2023-10-30T19:20:16Z</time>
      </trkpt>
      <trkpt lat="47.70767" lon="-2.50978">
        <ele>98</ele>
        <time>2023-10-30T19:21:24Z</time>
      </trkpt>
      <trkpt lat="47.70721" lon="-2.50959">
        <ele>101</ele>
        <time>2023-10-30T19:22:28Z</time>
      </trkpt>
      <trkpt lat="47.70693" lon="-2.50905">
        <ele>106</ele>
        <time>2023-10-30T19:23:29Z</time>
      </trkpt>
      <trkpt lat="47.7065" lon="-2.50839">
        <ele>113</ele>
        <time>2023-10-30T19:24:52Z</time>
      </trkpt>
      <trkpt lat="47.70623" lon="-2.50838">
        <ele>113</ele>
        <time>2023-10-30T19:25:28Z</time>
      </trkpt>
      <trkpt lat="47.70583" lon="-2.50841">
        <ele>113</ele>
        <time>2023-10-30T19:26:21Z</time>
      </trkpt>
      <trkpt lat="47.70568" lon="-2.50855">
        <ele>111</ele>
        <time>2023-10-30T19:26:45Z</time>
      </trkpt>
      <trkpt lat="47.705" lon="-2.50867">
        <ele>108</ele>
        <time>2023-10-30T19:28:16Z</time>
      </trkpt>
      <trkpt lat="47.70479" lon="-2.50843">
        <ele>109</ele>
        <time>2023-10-30T19:28:52Z</time>
      </trkpt>
      <trkpt lat="47.70457" lon="-2.50851">
        <ele>108</ele>
        <time>2023-10-30T19:29:22Z</time>
      </trkpt>
      <trkpt lat="47.70409" lon="-2.50855">
        <ele>106</ele>
        <time>2023-10-30T19:30:26Z</time>
      </trkpt>
      <trkpt lat="47.70387" lon="-2.50862">
        <ele>106</ele>
        <time>2023-10-30T19:30:56Z</time>
      </trkpt>
      <trkpt lat="47.70342" lon="-2.50854">
        <ele>106</ele>
        <time>2023-10-30T19:31:56Z</time>
      </trkpt>
      <trkpt lat="47.70328" lon="-2.50883">
        <ele>107</ele>
        <time>2023-10-30T19:32:29Z</time>
      </trkpt>
      <trkpt lat="47.70314" lon="-2.50892">
        <ele>108</ele>
        <time>2023-10-30T19:32:49Z</time>
      </trkpt>
      <trkpt lat="47.70303" lon="-2.50891">
        <ele>109</ele>
        <time>2023-10-30T19:33:04Z</time>
      </trkpt>
      <trkpt lat="47.70303" lon="-2.50921">
        <ele>110</ele>
        <time>2023-10-30T19:33:31Z</time>
      </trkpt>
      <trkpt lat="47.70294" lon="-2.5095">
        <ele>114</ele>
        <time>2023-10-30T19:33:59Z</time>
      </trkpt>
      <trkpt lat="47.70289" lon="-2.50979">
        <ele>118</ele>
        <time>2023-10-30T19:34:26Z</time>
      </trkpt>
      <trkpt lat="47.70289" lon="-2.51">
        <ele>121</ele>
        <time>2023-10-30T19:34:45Z</time>
      </trkpt>
      <trkpt lat="47.7027" lon="-2.51018">
        <ele>123</ele>
        <time>2023-10-30T19:35:15Z</time>
      </trkpt>
      <trkpt lat="47.70279" lon="-2.51027">
        <ele>123</ele>
        <time>2023-10-30T19:35:30Z</time>
      </trkpt>
      <trkpt lat="47.70266" lon="-2.51046">
        <ele>125</ele>
        <time>2023-10-30T19:35:54Z</time>
      </trkpt>
      <trkpt lat="47.70215" lon="-2.51088">
        <ele>128</ele>
        <time>2023-10-30T19:37:12Z</time>
      </trkpt>
      <trkpt lat="47.7018" lon="-2.51153">
        <ele>129</ele>
        <time>2023-10-30T19:38:26Z</time>
      </trkpt>
      <trkpt lat="47.70155" lon="-2.51216">
        <ele>130</ele>
        <time>2023-10-30T19:39:32Z</time>
      </trkpt>
      <trkpt lat="47.70145" lon="-2.51318">
        <ele>131</ele>
        <time>2023-10-30T19:41:05Z</time>
      </trkpt>
      <trkpt lat="47.70145" lon="-2.51397">
        <ele>132</ele>
        <time>2023-10-30T19:42:16Z</time>
      </trkpt>
      <trkpt lat="47.70173" lon="-2.5168">
        <ele>133</ele>
        <time>2023-10-30T19:46:33Z</time>
      </trkpt>
      <trkpt lat="47.70193" lon="-2.51785">
        <ele>130</ele>
        <time>2023-10-30T19:48:11Z</time>
      </trkpt>
      <trkpt lat="47.70186" lon="-2.51796">
        <ele>130</ele>
        <time>2023-10-30T19:48:24Z</time>
      </trkpt>
      <trkpt lat="47.70152" lon="-2.51805">
        <ele>130</ele>
        <time>2023-10-30T19:49:10Z</time>
      </trkpt>
      <trkpt lat="47.70036" lon="-2.51816">
        <ele>129</ele>
        <time>2023-10-30T19:51:45Z</time>
      </trkpt>
      <trkpt lat="47.70008" lon="-2.51813">
        <ele>130</ele>
        <time>2023-10-30T19:52:23Z</time>
      </trkpt>
      <trkpt lat="47.69985" lon="-2.51763">
        <ele>130</ele>
        <time>2023-10-30T19:53:17Z</time>
      </trkpt>
      <trkpt lat="47.69976" lon="-2.51717">
        <ele>131</ele>
        <time>2023-10-30T19:54:00Z</time>
      </trkpt>
      <trkpt lat="47.69968" lon="-2.51649">
        <ele>132</ele>
        <time>2023-10-30T19:55:02Z</time>
      </trkpt>
      <trkpt lat="47.69958" lon="-2.51603">
        <ele>133</ele>
        <time>2023-10-30T19:55:46Z</time>
      </trkpt>
      <trkpt lat="47.69928" lon="-2.5155">
        <ele>135</ele>
        <time>2023-10-30T19:56:48Z</time>
      </trkpt>
      <trkpt lat="47.69911" lon="-2.51529">
        <ele>136</ele>
        <time>2023-10-30T19:57:17Z</time>
      </trkpt>
      <trkpt lat="47.69863" lon="-2.51534">
        <ele>136</ele>
        <time>2023-10-30T19:58:22Z</time>
      </trkpt>
      <trkpt lat="47.69713" lon="-2.51559">
        <ele>133</ele>
        <time>2023-10-30T20:01:43Z</time>
      </trkpt>
      <trkpt lat="47.69703" lon="-2.51578">
        <ele>133</ele>
        <time>2023-10-30T20:02:05Z</time>
      </trkpt>
      <trkpt lat="47.69683" lon="-2.5159">
        <ele>133</ele>
        <time>2023-10-30T20:02:33Z</time>
      </trkpt>
      <trkpt lat="47.69645" lon="-2.51595">
        <ele>133</ele>
        <time>2023-10-30T20:03:24Z</time>
      </trkpt>
      <trkpt lat="47.69596" lon="-2.51577">
        <ele>135</ele>
        <time>2023-10-30T20:04:32Z</time>
      </trkpt>
      <trkpt lat="47.69538" lon="-2.51513">
        <ele>139</ele>
        <time>2023-10-30T20:06:08Z</time>
      </trkpt>
      <trkpt lat="47.6941" lon="-2.5133">
        <ele>140</ele>
        <time>2023-10-30T20:10:05Z</time>
      </trkpt>
      <trkpt lat="47.69373" lon="-2.51383">
        <ele>138</ele>
        <time>2023-10-30T20:11:14Z</time>
      </trkpt>
      <trkpt lat="47.69321" lon="-2.51482">
        <ele>136</ele>
        <time>2023-10-30T20:13:07Z</time>
      </trkpt>
      <trkpt lat="47.6929" lon="-2.5152">
        <ele>136</ele>
        <time>2023-10-30T20:14:00Z</time>
      </trkpt>
      <trkpt lat="47.69242" lon="-2.51559">
        <ele>133</ele>
        <time>2023-10-30T20:15:13Z</time>
      </trkpt>
      <trkpt lat="47.69206" lon="-2.51574">
        <ele>129</ele>
        <time>2023-10-30T20:16:03Z</time>
      </trkpt>
      <trkpt lat="47.69177" lon="-2.5159">
        <ele>126</ele>
        <time>2023-10-30T20:16:44Z</time>
      </trkpt>
      <trkpt lat="47.69163" lon="-2.51611">
        <ele>124</ele>
        <time>2023-10-30T20:17:11Z</time>
      </trkpt>
      <trkpt lat="47.69178" lon="-2.517">
        <ele>123</ele>
        <time>2023-10-30T20:18:33Z</time>
      </trkpt>
      <trkpt lat="47.69141" lon="-2.51769">
        <ele>117</ele>
        <time>2023-10-30T20:19:53Z</time>
      </trkpt>
      <trkpt lat="47.69122" lon="-2.51775">
        <ele>116</ele>
        <time>2023-10-30T20:20:18Z</time>
      </trkpt>
      <trkpt lat="47.69119" lon="-2.51787">
        <ele>116</ele>
        <time>2023-10-30T20:20:30Z</time>
      </trkpt>
      <trkpt lat="47.69101" lon="-2.51818">
        <ele>116</ele>
        <time>2023-10-30T20:21:07Z</time>
      </trkpt>
      <trkpt lat="47.69104" lon="-2.51845">
        <ele>116</ele>
        <time>2023-10-30T20:21:31Z</time>
      </trkpt>
      <trkpt lat="47.69125" lon="-2.51919">
        <ele>114</ele>
        <time>2023-10-30T20:22:43Z</time>
      </trkpt>
      <trkpt lat="47.69132" lon="-2.51966">
        <ele>114</ele>
        <time>2023-10-30T20:23:27Z</time>
      </trkpt>
      <trkpt lat="47.69131" lon="-2.51981">
        <ele>114</ele>
        <time>2023-10-30T20:23:40Z</time>
      </trkpt>
      <trkpt lat="47.69118" lon="-2.52003">
        <ele>113</ele>
        <time>2023-10-30T20:24:07Z</time>
      </trkpt>
      <trkpt lat="47.69065" lon="-2.52032">
        <ele>112</ele>
        <time>2023-10-30T20:25:22Z</time>
      </trkpt>
      <trkpt lat="47.69042" lon="-2.52052">
        <ele>110</ele>
        <time>2023-10-30T20:25:57Z</time>
      </trkpt>
      <trkpt lat="47.69022" lon="-2.52083">
        <ele>110</ele>
        <time>2023-10-30T20:26:36Z</time>
      </trkpt>
      <trkpt lat="47.68999" lon="-2.52143">
        <ele>108</ele>
        <time>2023-10-30T20:27:38Z</time>
      </trkpt>
      <trkpt lat="47.68974" lon="-2.5218">
        <ele>107</ele>
        <time>2023-10-30T20:28:25Z</time>
      </trkpt>
      <trkpt lat="47.68918" lon="-2.5222">
        <ele>105</ele>
        <time>2023-10-30T20:29:48Z</time>
      </trkpt>
      <trkpt lat="47.68875" lon="-2.52258">
        <ele>107</ele>
        <time>2023-10-30T20:30:55Z</time>
      </trkpt>
      <trkpt lat="47.68747" lon="-2.5235">
        <ele>110</ele>
        <time>2023-10-30T20:34:05Z</time>
      </trkpt>
      <trkpt lat="47.68703" lon="-2.52386">
        <ele>111</ele>
        <time>2023-10-30T20:35:12Z</time>
      </trkpt>
      <trkpt lat="47.68681" lon="-2.52405">
        <ele>111</ele>
        <time>2023-10-30T20:35:46Z</time>
      </trkpt>
      <trkpt lat="47.6864" lon="-2.52457">
        <ele>112</ele>
        <time>2023-10-30T20:36:58Z</time>
      </trkpt>
      <trkpt lat="47.68588" lon="-2.52499">
        <ele>114</ele>
        <time>2023-10-30T20:38:17Z</time>
      </trkpt>
      <trkpt lat="47.68536" lon="-2.52527">
        <ele>116</ele>
        <time>2023-10-30T20:39:30Z</time>
      </trkpt>
      <trkpt lat="47.68484" lon="-2.52566">
        <ele>116</ele>
        <time>2023-10-30T20:40:48Z</time>
      </trkpt>
      <trkpt lat="47.68451" lon="-2.526">
        <ele>116</ele>
        <time>2023-10-30T20:41:42Z</time>
      </trkpt>
      <trkpt lat="47.68356" lon="-2.52646">
        <ele>114</ele>
        <time>2023-10-30T20:43:55Z</time>
      </trkpt>
      <trkpt lat="47.68357" lon="-2.52686">
        <ele>113</ele>
        <time>2023-10-30T20:44:31Z</time>
      </trkpt>
      <trkpt lat="47.68367" lon="-2.5279">
        <ele>108</ele>
        <time>2023-10-30T20:46:05Z</time>
      </trkpt>
      <trkpt lat="47.6838" lon="-2.52813">
        <ele>108</ele>
        <time>2023-10-30T20:46:32Z</time>
      </trkpt>
      <trkpt lat="47.68394" lon="-2.52845">
        <ele>106</ele>
        <time>2023-10-30T20:47:07Z</time>
      </trkpt>
      <trkpt lat="47.68399" lon="-2.52885">
        <ele>104</ele>
        <time>2023-10-30T20:47:43Z</time>
      </trkpt>
      <trkpt lat="47.684" lon="-2.52995">
        <ele>100</ele>
        <time>2023-10-30T20:49:22Z</time>
      </trkpt>
      <trkpt lat="47.68418" lon="-2.5312">
        <ele>98</ele>
        <time>2023-10-30T20:51:17Z</time>
      </trkpt>
      <trkpt lat="47.68403" lon="-2.53151">
        <ele>100</ele>
        <time>2023-10-30T20:51:51Z</time>
      </trkpt>
      <trkpt lat="47.68413" lon="-2.53167">
        <ele>101</ele>
        <time>2023-10-30T20:52:11Z</time>
      </trkpt>
      <trkpt lat="47.68426" lon="-2.53179">
        <ele>101</ele>
        <time>2023-10-30T20:52:31Z</time>
      </trkpt>
      <trkpt lat="47.68419" lon="-2.53192">
        <ele>102</ele>
        <time>2023-10-30T20:52:46Z</time>
      </trkpt>
      <trkpt lat="47.68401" lon="-2.53186">
        <ele>102</ele>
        <time>2023-10-30T20:53:11Z</time>
      </trkpt>
      <trkpt lat="47.68386" lon="-2.53186">
        <ele>101</ele>
        <time>2023-10-30T20:53:31Z</time>
      </trkpt>
      <trkpt lat="47.68406" lon="-2.53224">
        <ele>104</ele>
        <time>2023-10-30T20:54:14Z</time>
      </trkpt>
      <trkpt lat="47.68446" lon="-2.53286">
        <ele>106</ele>
        <time>2023-10-30T20:55:31Z</time>
      </trkpt>
      <trkpt lat="47.68471" lon="-2.53352">
        <ele>107</ele>
        <time>2023-10-30T20:56:39Z</time>
      </trkpt>
      <trkpt lat="47.68491" lon="-2.53366">
        <ele>106</ele>
        <time>2023-10-30T20:57:09Z</time>
      </trkpt>
      <trkpt lat="47.68529" lon="-2.53424">
        <ele>105</ele>
        <time>2023-10-30T20:58:21Z</time>
      </trkpt>
      <trkpt lat="47.68598" lon="-2.53602">
        <ele>106</ele>
        <time>2023-10-30T21:01:26Z</time>
      </trkpt>
      <trkpt lat="47.68608" lon="-2.53658">
        <ele>107</ele>
        <time>2023-10-30T21:02:18Z</time>
      </trkpt>
      <trkpt lat="47.68621" lon="-2.53795">
        <ele>112</ele>
        <time>2023-10-30T21:04:22Z</time>
      </trkpt>
      <trkpt lat="47.68647" lon="-2.5389">
        <ele>113</ele>
        <time>2023-10-30T21:05:54Z</time>
      </trkpt>
      <trkpt lat="47.6867" lon="-2.53919">
        <ele>110</ele>
        <time>2023-10-30T21:06:35Z</time>
      </trkpt>
      <trkpt lat="47.68707" lon="-2.53924">
        <ele>106</ele>
        <time>2023-10-30T21:07:24Z</time>
      </trkpt>
      <trkpt lat="47.68885" lon="-2.53896">
        <ele>102</ele>
        <time>2023-10-30T21:11:23Z</time>
      </trkpt>
      <trkpt lat="47.68904" lon="-2.53897">
        <ele>102</ele>
        <time>2023-10-30T21:11:49Z</time>
      </trkpt>
      <trkpt lat="47.68907" lon="-2.53946">
        <ele>101</ele>
        <time>2023-10-30T21:12:33Z</time>
      </trkpt>
      <trkpt lat="47.68903" lon="-2.54077">
        <ele>103</ele>
        <time>2023-10-30T21:14:31Z</time>
      </trkpt>
      <trkpt lat="47.68922" lon="-2.54174">
        <ele>105</ele>
        <time>2023-10-30T21:16:01Z</time>
      </trkpt>
      <trkpt lat="47.68938" lon="-2.54242">
        <ele>106</ele>
        <time>2023-10-30T21:17:06Z</time>
      </trkpt>
      <trkpt lat="47.68925" lon="-2.54266">
        <ele>105</ele>
        <time>2023-10-30T21:17:34Z</time>
      </trkpt>
      <trkpt lat="47.68909" lon="-2.54317">
        <ele>105</ele>
        <time>2023-10-30T21:18:24Z</time>
      </trkpt>
      <trkpt lat="47.68781" lon="-2.54363">
        <ele>113</ele>
        <time>2023-10-30T21:21:20Z</time>
      </trkpt>
      <trkpt lat="47.68788" lon="-2.54456">
        <ele>116</ele>
        <time>2023-10-30T21:22:44Z</time>
      </trkpt>
      <trkpt lat="47.68743" lon="-2.54423">
        <ele>122</ele>
        <time>2023-10-30T21:23:51Z</time>
      </trkpt>
      <trkpt lat="47.68727" lon="-2.54388">
        <ele>123</ele>
        <time>2023-10-30T21:24:29Z</time>
      </trkpt>
      <trkpt lat="47.68626" lon="-2.54409">
        <ele>135</ele>
        <time>2023-10-30T21:26:45Z</time>
      </trkpt>
      <trkpt lat="47.68612" lon="-2.54384">
        <ele>135</ele>
        <time>2023-10-30T21:27:14Z</time>
      </trkpt>
      <trkpt lat="47.68586" lon="-2.54267">
        <ele>135</ele>
        <time>2023-10-30T21:29:05Z</time>
      </trkpt>
      <trkpt lat="47.68539" lon="-2.54144">
        <ele>135</ele>
        <time>2023-10-30T21:31:12Z</time>
      </trkpt>
      <trkpt lat="47.68532" lon="-2.54028">
        <ele>136</ele>
        <time>2023-10-30T21:32:57Z</time>
      </trkpt>
      <trkpt lat="47.68544" lon="-2.53893">
        <ele>132</ele>
        <time>2023-10-30T21:34:59Z</time>
      </trkpt>
      <trkpt lat="47.6852" lon="-2.5381">
        <ele>131</ele>
        <time>2023-10-30T21:36:20Z</time>
      </trkpt>
      <trkpt lat="47.68514" lon="-2.53731">
        <ele>127</ele>
        <time>2023-10-30T21:37:32Z</time>
      </trkpt>
      <trkpt lat="47.68514" lon="-2.5365">
        <ele>122</ele>
        <time>2023-10-30T21:38:44Z</time>
      </trkpt>
      <trkpt lat="47.68411" lon="-2.53485">
        <ele>117</ele>
        <time>2023-10-30T21:42:06Z</time>
      </trkpt>
      <trkpt lat="47.684" lon="-2.53457">
        <ele>116</ele>
        <time>2023-10-30T21:42:36Z</time>
      </trkpt>
      <trkpt lat="47.68351" lon="-2.53273">
        <ele>105</ele>
        <time>2023-10-30T21:45:33Z</time>
      </trkpt>
      <trkpt lat="47.68347" lon="-2.53226">
        <ele>102</ele>
        <time>2023-10-30T21:46:16Z</time>
      </trkpt>
      <trkpt lat="47.68362" lon="-2.53184">
        <ele>101</ele>
        <time>2023-10-30T21:46:59Z</time>
      </trkpt>
      <trkpt lat="47.68386" lon="-2.53186">
        <ele>101</ele>
        <time>2023-10-30T21:47:31Z</time>
      </trkpt>
      <trkpt lat="47.68412" lon="-2.53181">
        <ele>102</ele>
        <time>2023-10-30T21:48:06Z</time>
      </trkpt>
      <trkpt lat="47.68396" lon="-2.5316">
        <ele>100</ele>
        <time>2023-10-30T21:48:34Z</time>
      </trkpt>
      <trkpt lat="47.68361" lon="-2.53143">
        <ele>99</ele>
        <time>2023-10-30T21:49:23Z</time>
      </trkpt>
      <trkpt lat="47.68316" lon="-2.53149">
        <ele>98</ele>
        <time>2023-10-30T21:50:24Z</time>
      </trkpt>
      <trkpt lat="47.68299" lon="-2.53159">
        <ele>98</ele>
        <time>2023-10-30T21:50:48Z</time>
      </trkpt>
      <trkpt lat="47.68286" lon="-2.53225">
        <ele>101</ele>
        <time>2023-10-30T21:51:50Z</time>
      </trkpt>
      <trkpt lat="47.68288" lon="-2.53238">
        <ele>102</ele>
        <time>2023-10-30T21:52:02Z</time>
      </trkpt>
      <trkpt lat="47.68157" lon="-2.53243">
        <ele>102</ele>
        <time>2023-10-30T21:54:57Z</time>
      </trkpt>
      <trkpt lat="47.68088" lon="-2.53252">
        <ele>99</ele>
        <time>2023-10-30T21:56:29Z</time>
      </trkpt>
      <trkpt lat="47.68078" lon="-2.53233">
        <ele>97</ele>
        <time>2023-10-30T21:56:51Z</time>
      </trkpt>
      <trkpt lat="47.68079" lon="-2.53213">
        <ele>96</ele>
        <time>2023-10-30T21:57:09Z</time>
      </trkpt>
      <trkpt lat="47.68028" lon="-2.53206">
        <ele>93</ele>
        <time>2023-10-30T21:58:17Z</time>
      </trkpt>
      <trkpt lat="47.67958" lon="-2.53205">
        <ele>90</ele>
        <time>2023-10-30T21:59:51Z</time>
      </trkpt>
      <trkpt lat="47.67936" lon="-2.53215">
        <ele>89</ele>
        <time>2023-10-30T22:00:21Z</time>
      </trkpt>
      <trkpt lat="47.67901" lon="-2.53211">
        <ele>89</ele>
        <time>2023-10-30T22:01:08Z</time>
      </trkpt>
      <trkpt lat="47.67863" lon="-2.53166">
        <ele>90</ele>
        <time>2023-10-30T22:02:13Z</time>
      </trkpt>
      <trkpt lat="47.67855" lon="-2.5316">
        <ele>90</ele>
        <time>2023-10-30T22:02:25Z</time>
      </trkpt>
      <trkpt lat="47.6786" lon="-2.53143">
        <ele>89</ele>
        <time>2023-10-30T22:02:42Z</time>
      </trkpt>
      <trkpt lat="47.67819" lon="-2.5304">
        <ele>89</ele>
        <time>2023-10-30T22:04:29Z</time>
      </trkpt>
      <trkpt lat="47.67786" lon="-2.53007">
        <ele>91</ele>
        <time>2023-10-30T22:05:22Z</time>
      </trkpt>
      <trkpt lat="47.67772" lon="-2.52973">
        <ele>92</ele>
        <time>2023-10-30T22:05:58Z</time>
      </trkpt>
      <trkpt lat="47.67755" lon="-2.52893">
        <ele>92</ele>
        <time>2023-10-30T22:07:13Z</time>
      </trkpt>
      <trkpt lat="47.67707" lon="-2.52843">
        <ele>94</ele>
        <time>2023-10-30T22:08:32Z</time>
      </trkpt>
      <trkpt lat="47.67677" lon="-2.5282">
        <ele>94</ele>
        <time>2023-10-30T22:09:17Z</time>
      </trkpt>
      <trkpt lat="47.67611" lon="-2.52804">
        <ele>95</ele>
        <time>2023-10-30T22:10:46Z</time>
      </trkpt>
      <trkpt lat="47.67579" lon="-2.52791">
        <ele>95</ele>
        <time>2023-10-30T22:11:30Z</time>
      </trkpt>
      <trkpt lat="47.6756" lon="-2.52755">
        <ele>95</ele>
        <time>2023-10-30T22:12:11Z</time>
      </trkpt>
      <trkpt lat="47.67542" lon="-2.52678">
        <ele>94</ele>
        <time>2023-10-30T22:13:24Z</time>
      </trkpt>
      <trkpt lat="47.67522" lon="-2.52621">
        <ele>93</ele>
        <time>2023-10-30T22:14:22Z</time>
      </trkpt>
      <trkpt lat="47.67513" lon="-2.52559">
        <ele>89</ele>
        <time>2023-10-30T22:15:19Z</time>
      </trkpt>
      <trkpt lat="47.6749" lon="-2.52518">
        <ele>88</ele>
        <time>2023-10-30T22:16:07Z</time>
      </trkpt>
      <trkpt lat="47.67452" lon="-2.5248">
        <ele>92</ele>
        <time>2023-10-30T22:17:08Z</time>
      </trkpt>
      <trkpt lat="47.6741" lon="-2.52452">
        <ele>96</ele>
        <time>2023-10-30T22:18:10Z</time>
      </trkpt>
      <trkpt lat="47.67366" lon="-2.52405">
        <ele>101</ele>
        <time>2023-10-30T22:19:22Z</time>
      </trkpt>
      <trkpt lat="47.67338" lon="-2.52407">
        <ele>106</ele>
        <time>2023-10-30T22:19:59Z</time>
      </trkpt>
      <trkpt lat="47.6729" lon="-2.52418">
        <ele>112</ele>
        <time>2023-10-30T22:21:04Z</time>
      </trkpt>
      <trkpt lat="47.67274" lon="-2.5245">
        <ele>115</ele>
        <time>2023-10-30T22:21:40Z</time>
      </trkpt>
      <trkpt lat="47.67237" lon="-2.52447">
        <ele>118</ele>
        <time>2023-10-30T22:22:30Z</time>
      </trkpt>
      <trkpt lat="47.67183" lon="-2.52458">
        <ele>120</ele>
        <time>2023-10-30T22:23:42Z</time>
      </trkpt>
      <trkpt lat="47.67142" lon="-2.52486">
        <ele>123</ele>
        <time>2023-10-30T22:24:43Z</time>
      </trkpt>
      <trkpt lat="47.67112" lon="-2.52527">
        <ele>125</ele>
        <time>2023-10-30T22:25:37Z</time>
      </trkpt>
      <trkpt lat="47.6707" lon="-2.52548">
        <ele>125</ele>
        <time>2023-10-30T22:26:36Z</time>
      </trkpt>
      <trkpt lat="47.67045" lon="-2.52547">
        <ele>125</ele>
        <time>2023-10-30T22:27:09Z</time>
      </trkpt>
      <trkpt lat="47.66993" lon="-2.52529">
        <ele>125</ele>
        <time>2023-10-30T22:28:21Z</time>
      </trkpt>
      <trkpt lat="47.66975" lon="-2.52528">
        <ele>125</ele>
        <time>2023-10-30T22:28:45Z</time>
      </trkpt>
      <trkpt lat="47.66918" lon="-2.52557">
        <ele>125</ele>
        <time>2023-10-30T22:30:05Z</time>
      </trkpt>
      <trkpt lat="47.66908" lon="-2.52543">
        <ele>124</ele>
        <time>2023-10-30T22:30:23Z</time>
      </trkpt>
      <trkpt lat="47.66888" lon="-2.52279">
        <ele>121</ele>
        <time>2023-10-30T22:34:22Z</time>
      </trkpt>
      <trkpt lat="47.66878" lon="-2.52224">
        <ele>121</ele>
        <time>2023-10-30T22:35:13Z</time>
      </trkpt>
      <trkpt lat="47.66829" lon="-2.52204">
        <ele>119</ele>
        <time>2023-10-30T22:36:21Z</time>
      </trkpt>
      <trkpt lat="47.66756" lon="-2.52169">
        <ele>115</ele>
        <time>2023-10-30T22:38:04Z</time>
      </trkpt>
      <trkpt lat="47.6672" lon="-2.52149">
        <ele>114</ele>
        <time>2023-10-30T22:38:55Z</time>
      </trkpt>
      <trkpt lat="47.66686" lon="-2.52143">
        <ele>112</ele>
        <time>2023-10-30T22:39:41Z</time>
      </trkpt>
      <trkpt lat="47.66638" lon="-2.5212">
        <ele>112</ele>
        <time>2023-10-30T22:40:48Z</time>
      </trkpt>
      <trkpt lat="47.66558" lon="-2.52024">
        <ele>110</ele>
        <time>2023-10-30T22:43:05Z</time>
      </trkpt>
      <trkpt lat="47.66539" lon="-2.51986">
        <ele>110</ele>
        <time>2023-10-30T22:43:48Z</time>
      </trkpt>
      <trkpt lat="47.66518" lon="-2.51917">
        <ele>110</ele>
        <time>2023-10-30T22:44:56Z</time>
      </trkpt>
      <trkpt lat="47.66506" lon="-2.51893">
        <ele>109</ele>
        <time>2023-10-30T22:45:23Z</time>
      </trkpt>
      <trkpt lat="47.66481" lon="-2.51894">
        <ele>108</ele>
        <time>2023-10-30T22:45:56Z</time>
      </trkpt>
      <trkpt lat="47.66463" lon="-2.5193">
        <ele>108</ele>
        <time>2023-10-30T22:46:36Z</time>
      </trkpt>
      <trkpt lat="47.66443" lon="-2.51945">
        <ele>108</ele>
        <time>2023-10-30T22:47:06Z</time>
      </trkpt>
      <trkpt lat="47.66402" lon="-2.51963">
        <ele>108</ele>
        <time>2023-10-30T22:48:03Z</time>
      </trkpt>
      <trkpt lat="47.66375" lon="-2.51992">
        <ele>107</ele>
        <time>2023-10-30T22:48:48Z</time>
      </trkpt>
      <trkpt lat="47.66326" lon="-2.52095">
        <ele>106</ele>
        <time>2023-10-30T22:50:41Z</time>
      </trkpt>
      <trkpt lat="47.66281" lon="-2.52279">
        <ele>101</ele>
        <time>2023-10-30T22:53:37Z</time>
      </trkpt>
      <trkpt lat="47.66299" lon="-2.52367">
        <ele>102</ele>
        <time>2023-10-30T22:55:00Z</time>
      </trkpt>
      <trkpt lat="47.66306" lon="-2.5246">
        <ele>103</ele>
        <time>2023-10-30T22:56:24Z</time>
      </trkpt>
      <trkpt lat="47.66324" lon="-2.52518">
        <ele>105</ele>
        <time>2023-10-30T22:57:21Z</time>
      </trkpt>
      <trkpt lat="47.66341" lon="-2.52524">
        <ele>106</ele>
        <time>2023-10-30T22:57:44Z</time>
      </trkpt>
      <trkpt lat="47.66355" lon="-2.52539">
        <ele>107</ele>
        <time>2023-10-30T22:58:07Z</time>
      </trkpt>
      <trkpt lat="47.66343" lon="-2.52591">
        <ele>106</ele>
        <time>2023-10-30T22:58:57Z</time>
      </trkpt>
      <trkpt lat="47.66341" lon="-2.52651">
        <ele>105</ele>
        <time>2023-10-30T22:59:51Z</time>
      </trkpt>
      <trkpt lat="47.66335" lon="-2.52657">
        <ele>105</ele>
        <time>2023-10-30T23:00:01Z</time>
      </trkpt>
      <trkpt lat="47.66336" lon="-2.52686">
        <ele>104</ele>
        <time>2023-10-30T23:00:27Z</time>
      </trkpt>
      <trkpt lat="47.66325" lon="-2.52688">
        <ele>103</ele>
        <time>2023-10-30T23:00:41Z</time>
      </trkpt>
      <trkpt lat="47.66317" lon="-2.52686">
        <ele>102</ele>
        <time>2023-10-30T23:00:52Z</time>
      </trkpt>
      <trkpt lat="47.66315" lon="-2.52699">
        <ele>101</ele>
        <time>2023-10-30T23:01:04Z</time>
      </trkpt>
      <trkpt lat="47.66308" lon="-2.52695">
        <ele>101</ele>
        <time>2023-10-30T23:01:14Z</time>
      </trkpt>
      <trkpt lat="47.66304" lon="-2.52704">
        <ele>100</ele>
        <time>2023-10-30T23:01:24Z</time>
      </trkpt>
      <trkpt lat="47.66311" lon="-2.52723">
        <ele>100</ele>
        <time>2023-10-30T23:01:43Z</time>
      </trkpt>
      <trkpt lat="47.66308" lon="-2.52732">
        <ele>99</ele>
        <time>2023-10-30T23:01:52Z</time>
      </trkpt>
      <trkpt lat="47.6628" lon="-2.52734">
        <ele>99</ele>
        <time>2023-10-30T23:02:30Z</time>
      </trkpt>
      <trkpt lat="47.6626" lon="-2.52749">
        <ele>98</ele>
        <time>2023-10-30T23:03:00Z</time>
      </trkpt>
      <trkpt lat="47.66241" lon="-2.52774">
        <ele>99</ele>
        <time>2023-10-30T23:03:34Z</time>
      </trkpt>
      <trkpt lat="47.6624" lon="-2.5282">
        <ele>100</ele>
        <time>2023-10-30T23:04:15Z</time>
      </trkpt>
      <trkpt lat="47.66244" lon="-2.52842">
        <ele>100</ele>
        <time>2023-10-30T23:04:35Z</time>
      </trkpt>
      <trkpt lat="47.66202" lon="-2.52882">
        <ele>102</ele>
        <time>2023-10-30T23:05:42Z</time>
      </trkpt>
      <trkpt lat="47.66185" lon="-2.52922">
        <ele>103</ele>
        <time>2023-10-30T23:06:25Z</time>
      </trkpt>
      <trkpt lat="47.66167" lon="-2.5298">
        <ele>106</ele>
        <time>2023-10-30T23:07:22Z</time>
      </trkpt>
      <trkpt lat="47.66143" lon="-2.53027">
        <ele>106</ele>
        <time>2023-10-30T23:08:15Z</time>
      </trkpt>
      <trkpt lat="47.66108" lon="-2.53173">
        <ele>107</ele>
        <time>2023-10-30T23:10:34Z</time>
      </trkpt>
      <trkpt lat="47.66136" lon="-2.53344">
        <ele>108</ele>
        <time>2023-10-30T23:13:12Z</time>
      </trkpt>
      <trkpt lat="47.66139" lon="-2.53401">
        <ele>107</ele>
        <time>2023-10-30T23:14:04Z</time>
      </trkpt>
      <trkpt lat="47.66123" lon="-2.53463">
        <ele>108</ele>
        <time>2023-10-30T23:15:03Z</time>
      </trkpt>
      <trkpt lat="47.66103" lon="-2.53476">
        <ele>109</ele>
        <time>2023-10-30T23:15:33Z</time>
      </trkpt>
      <trkpt lat="47.66091" lon="-2.5348">
        <ele>110</ele>
        <time>2023-10-30T23:15:49Z</time>
      </trkpt>
      <trkpt lat="47.66076" lon="-2.53501">
        <ele>111</ele>
        <time>2023-10-30T23:16:17Z</time>
      </trkpt>
      <trkpt lat="47.66051" lon="-2.53515">
        <ele>111</ele>
        <time>2023-10-30T23:16:52Z</time>
      </trkpt>
      <trkpt lat="47.66006" lon="-2.53527">
        <ele>112</ele>
        <time>2023-10-30T23:17:53Z</time>
      </trkpt>
      <trkpt lat="47.65974" lon="-2.53531">
        <ele>112</ele>
        <time>2023-10-30T23:18:36Z</time>
      </trkpt>
      <trkpt lat="47.65955" lon="-2.53529">
        <ele>112</ele>
        <time>2023-10-30T23:19:01Z</time>
      </trkpt>
      <trkpt lat="47.65947" lon="-2.53549">
        <ele>112</ele>
        <time>2023-10-30T23:19:22Z</time>
      </trkpt>
      <trkpt lat="47.65955" lon="-2.53591">
        <ele>113</ele>
        <time>2023-10-30T23:20:02Z</time>
      </trkpt>
      <trkpt lat="47.65949" lon="-2.53609">
        <ele>113</ele>
        <time>2023-10-30T23:20:20Z</time>
      </trkpt>
      <trkpt lat="47.65914" lon="-2.53639">
        <ele>113</ele>
        <time>2023-10-30T23:21:14Z</time>
      </trkpt>
      <trkpt lat="47.65897" lon="-2.53661">
        <ele>114</ele>
        <time>2023-10-30T23:21:44Z</time>
      </trkpt>
      <trkpt lat="47.6588" lon="-2.53703">
        <ele>115</ele>
        <time>2023-10-30T23:22:28Z</time>
      </trkpt>
      <trkpt lat="47.65871" lon="-2.53732">
        <ele>115</ele>
        <time>2023-10-30T23:22:56Z</time>
      </trkpt>
      <trkpt lat="47.65869" lon="-2.53762">
        <ele>115</ele>
        <time>2023-10-30T23:23:24Z</time>
      </trkpt>
      <trkpt lat="47.65886" lon="-2.53772">
        <ele>114</ele>
        <time>2023-10-30T23:23:48Z</time>
      </trkpt>
      <trkpt lat="47.65892" lon="-2.53787">
        <ele>114</ele>
        <time>2023-10-30T23:24:04Z</time>
      </trkpt>
      <trkpt lat="47.65891" lon="-2.53809">
        <ele>114</ele>
        <time>2023-10-30T23:24:23Z</time>
      </trkpt>
      <trkpt lat="47.65884" lon="-2.5382">
        <ele>115</ele>
        <time>2023-10-30T23:24:37Z</time>
      </trkpt>
      <trkpt lat="47.65882" lon="-2.53855">
        <ele>115</ele>
        <time>2023-10-30T23:25:09Z</time>
      </trkpt>
      <trkpt lat="47.65872" lon="-2.53877">
        <ele>116</ele>
        <time>2023-10-30T23:25:32Z</time>
      </trkpt>
      <trkpt lat="47.65834" lon="-2.53934">
        <ele>119</ele>
        <time>2023-10-30T23:26:45Z</time>
      </trkpt>
      <trkpt lat="47.658" lon="-2.53999">
        <ele>119</ele>
        <time>2023-10-30T23:27:58Z</time>
      </trkpt>
      <trkpt lat="47.6581" lon="-2.54023">
        <ele>118</ele>
        <time>2023-10-30T23:28:24Z</time>
      </trkpt>
      <trkpt lat="47.65875" lon="-2.54089">
        <ele>117</ele>
        <time>2023-10-30T23:30:09Z</time>
      </trkpt>
      <trkpt lat="47.6591" lon="-2.54134">
        <ele>117</ele>
        <time>2023-10-30T23:31:11Z</time>
      </trkpt>
      <trkpt lat="47.65916" lon="-2.54166">
        <ele>117</ele>
        <time>2023-10-30T23:31:41Z</time>
      </trkpt>
      <trkpt lat="47.6602" lon="-2.54369">
        <ele>115</ele>
        <time>2023-10-30T23:35:30Z</time>
      </trkpt>
      <trkpt lat="47.66027" lon="-2.54393">
        <ele>116</ele>
        <time>2023-10-30T23:35:53Z</time>
      </trkpt>
      <trkpt lat="47.66076" lon="-2.54513">
        <ele>117</ele>
        <time>2023-10-30T23:37:59Z</time>
      </trkpt>
      <trkpt lat="47.65866" lon="-2.54527">
        <ele>111</ele>
        <time>2023-10-30T23:42:40Z</time>
      </trkpt>
      <trkpt lat="47.65815" lon="-2.54585">
        <ele>110</ele>
        <time>2023-10-30T23:44:06Z</time>
      </trkpt>
      <trkpt lat="47.65802" lon="-2.54624">
        <ele>111</ele>
        <time>2023-10-30T23:44:45Z</time>
      </trkpt>
      <trkpt lat="47.65757" lon="-2.54835">
        <ele>109</ele>
        <time>2023-10-30T23:48:04Z</time>
      </trkpt>
      <trkpt lat="47.65712" lon="-2.55096">
        <ele>111</ele>
        <time>2023-10-30T23:52:06Z</time>
      </trkpt>
      <trkpt lat="47.65685" lon="-2.55179">
        <ele>112</ele>
        <time>2023-10-30T23:53:29Z</time>
      </trkpt>
      <trkpt lat="47.65657" lon="-2.55201">
        <ele>113</ele>
        <time>2023-10-30T23:54:11Z</time>
      </trkpt>
      <trkpt lat="47.65611" lon="-2.55217">
        <ele>114</ele>
        <time>2023-10-30T23:55:14Z</time>
      </trkpt>
      <trkpt lat="47.65577" lon="-2.55235">
        <ele>114</ele>
        <time>2023-10-30T23:56:02Z</time>
      </trkpt>
      <trkpt lat="47.65563" lon="-2.55289">
        <ele>114</ele>
        <time>2023-10-30T23:56:54Z</time>
      </trkpt>
      <trkpt lat="47.65557" lon="-2.55332">
        <ele>113</ele>
        <time>2023-10-30T23:57:34Z</time>
      </trkpt>
      <trkpt lat="47.65548" lon="-2.55429">
        <ele>112</ele>
        <time>2023-10-30T23:59:02Z</time>
      </trkpt>
      <trkpt lat="47.65549" lon="-2.55498">
        <ele>110</ele>
        <time>2023-10-31T00:00:04Z</time>
      </trkpt>
      <trkpt lat="47.65521" lon="-2.55639">
        <ele>103</ele>
        <time>2023-10-31T00:02:16Z</time>
      </trkpt>
      <trkpt lat="47.65458" lon="-2.55656">
        <ele>101</ele>
        <time>2023-10-31T00:03:41Z</time>
      </trkpt>
      <trkpt lat="47.65397" lon="-2.55646">
        <ele>100</ele>
        <time>2023-10-31T00:05:03Z</time>
      </trkpt>
      <trkpt lat="47.65343" lon="-2.55644">
        <ele>101</ele>
        <time>2023-10-31T00:06:15Z</time>
      </trkpt>
      <trkpt lat="47.65307" lon="-2.55609">
        <ele>99</ele>
        <time>2023-10-31T00:07:13Z</time>
      </trkpt>
      <trkpt lat="47.65288" lon="-2.5558">
        <ele>98</ele>
        <time>2023-10-31T00:07:49Z</time>
      </trkpt>
      <trkpt lat="47.65271" lon="-2.55509">
        <ele>97</ele>
        <time>2023-10-31T00:08:57Z</time>
      </trkpt>
      <trkpt lat="47.6526" lon="-2.55489">
        <ele>96</ele>
        <time>2023-10-31T00:09:20Z</time>
      </trkpt>
      <trkpt lat="47.65254" lon="-2.55504">
        <ele>95</ele>
        <time>2023-10-31T00:09:36Z</time>
      </trkpt>
      <trkpt lat="47.65242" lon="-2.55501">
        <ele>96</ele>
        <time>2023-10-31T00:09:52Z</time>
      </trkpt>
      <trkpt lat="47.65241" lon="-2.55544">
        <ele>96</ele>
        <time>2023-10-31T00:10:31Z</time>
      </trkpt>
      <trkpt lat="47.65245" lon="-2.55645">
        <ele>95</ele>
        <time>2023-10-31T00:12:02Z</time>
      </trkpt>
      <trkpt lat="47.65258" lon="-2.55703">
        <ele>93</ele>
        <time>2023-10-31T00:12:57Z</time>
      </trkpt>
      <trkpt lat="47.65257" lon="-2.55741">
        <ele>91</ele>
        <time>2023-10-31T00:13:31Z</time>
      </trkpt>
      <trkpt lat="47.65252" lon="-2.55762">
        <ele>91</ele>
        <time>2023-10-31T00:13:51Z</time>
      </trkpt>
      <trkpt lat="47.65237" lon="-2.55774">
        <ele>93</ele>
        <time>2023-10-31T00:14:14Z</time>
      </trkpt>
      <trkpt lat="47.65223" lon="-2.55766">
        <ele>93</ele>
        <time>2023-10-31T00:14:34Z</time>
      </trkpt>
      <trkpt lat="47.65221" lon="-2.55758">
        <ele>93</ele>
        <time>2023-10-31T00:14:41Z</time>
      </trkpt>
      <trkpt lat="47.65189" lon="-2.5576">
        <ele>95</ele>
        <time>2023-10-31T00:15:24Z</time>
      </trkpt>
      <trkpt lat="47.65167" lon="-2.55709">
        <ele>98</ele>
        <time>2023-10-31T00:16:18Z</time>
      </trkpt>
      <trkpt lat="47.65089" lon="-2.55754">
        <ele>95</ele>
        <time>2023-10-31T00:18:10Z</time>
      </trkpt>
      <trkpt lat="47.65054" lon="-2.55742">
        <ele>95</ele>
        <time>2023-10-31T00:18:58Z</time>
      </trkpt>
      <trkpt lat="47.65011" lon="-2.5577">
        <ele>94</ele>
        <time>2023-10-31T00:20:01Z</time>
      </trkpt>
      <trkpt lat="47.64986" lon="-2.55816">
        <ele>94</ele>
        <time>2023-10-31T00:20:54Z</time>
      </trkpt>
      <trkpt lat="47.64971" lon="-2.55928">
        <ele>97</ele>
        <time>2023-10-31T00:22:36Z</time>
      </trkpt>
      <trkpt lat="47.64971" lon="-2.55966">
        <ele>96</ele>
        <time>2023-10-31T00:23:11Z</time>
      </trkpt>
      <trkpt lat="47.64976" lon="-2.56017">
        <ele>94</ele>
        <time>2023-10-31T00:23:57Z</time>
      </trkpt>
      <trkpt lat="47.64964" lon="-2.56102">
        <ele>92</ele>
        <time>2023-10-31T00:25:15Z</time>
      </trkpt>
      <trkpt lat="47.64943" lon="-2.56154">
        <ele>90</ele>
        <time>2023-10-31T00:26:10Z</time>
      </trkpt>
      <trkpt lat="47.64924" lon="-2.5619">
        <ele>86</ele>
        <time>2023-10-31T00:26:51Z</time>
      </trkpt>
      <trkpt lat="47.64842" lon="-2.56264">
        <ele>84</ele>
        <time>2023-10-31T00:28:59Z</time>
      </trkpt>
      <trkpt lat="47.64783" lon="-2.56336">
        <ele>80</ele>
        <time>2023-10-31T00:30:41Z</time>
      </trkpt>
      <trkpt lat="47.64764" lon="-2.56352">
        <ele>80</ele>
        <time>2023-10-31T00:31:10Z</time>
      </trkpt>
      <trkpt lat="47.64744" lon="-2.56364">
        <ele>80</ele>
        <time>2023-10-31T00:31:39Z</time>
      </trkpt>
      <trkpt lat="47.64719" lon="-2.5639">
        <ele>78</ele>
        <time>2023-10-31T00:32:19Z</time>
      </trkpt>
      <trkpt lat="47.6471" lon="-2.56364">
        <ele>82</ele>
        <time>2023-10-31T00:32:46Z</time>
      </trkpt>
      <trkpt lat="47.64705" lon="-2.56335">
        <ele>86</ele>
        <time>2023-10-31T00:33:13Z</time>
      </trkpt>
      <trkpt lat="47.64687" lon="-2.56337">
        <ele>87</ele>
        <time>2023-10-31T00:33:37Z</time>
      </trkpt>
      <trkpt lat="47.64666" lon="-2.56347">
        <ele>87</ele>
        <time>2023-10-31T00:34:06Z</time>
      </trkpt>
      <trkpt lat="47.6466" lon="-2.56321">
        <ele>90</ele>
        <time>2023-10-31T00:34:31Z</time>
      </trkpt>
      <trkpt lat="47.6464" lon="-2.56329">
        <ele>87</ele>
        <time>2023-10-31T00:34:58Z</time>
      </trkpt>
      <trkpt lat="47.64638" lon="-2.56311">
        <ele>88</ele>
        <time>2023-10-31T00:35:15Z</time>
      </trkpt>
      <trkpt lat="47.64662" lon="-2.56266">
        <ele>96</ele>
        <time>2023-10-31T00:36:06Z</time>
      </trkpt>
      <trkpt lat="47.6466" lon="-2.56228">
        <ele>98</ele>
        <time>2023-10-31T00:36:41Z</time>
      </trkpt>
      <trkpt lat="47.64663" lon="-2.56205">
        <ele>99</ele>
        <time>2023-10-31T00:37:02Z</time>
      </trkpt>
      <trkpt lat="47.64652" lon="-2.56197">
        <ele>98</ele>
        <time>2023-10-31T00:37:18Z</time>
      </trkpt>
      <trkpt lat="47.64644" lon="-2.56156">
        <ele>99</ele>
        <time>2023-10-31T00:37:56Z</time>
      </trkpt>
      <trkpt lat="47.64636" lon="-2.5614">
        <ele>99</ele>
        <time>2023-10-31T00:38:14Z</time>
      </trkpt>
      <trkpt lat="47.64629" lon="-2.56103">
        <ele>99</ele>
        <time>2023-10-31T00:38:49Z</time>
      </trkpt>
      <trkpt lat="47.64622" lon="-2.56101">
        <ele>99</ele>
        <time>2023-10-31T00:38:58Z</time>
      </trkpt>
      <trkpt lat="47.64618" lon="-2.56092">
        <ele>99</ele>
        <time>2023-10-31T00:39:08Z</time>
      </trkpt>
      <trkpt lat="47.6462" lon="-2.56069">
        <ele>100</ele>
        <time>2023-10-31T00:39:29Z</time>
      </trkpt>
      <trkpt lat="47.64593" lon="-2.56015">
        <ele>102</ele>
        <time>2023-10-31T00:40:29Z</time>
      </trkpt>
      <trkpt lat="47.64568" lon="-2.55952">
        <ele>104</ele>
        <time>2023-10-31T00:41:35Z</time>
      </trkpt>
      <trkpt lat="47.64555" lon="-2.55903">
        <ele>105</ele>
        <time>2023-10-31T00:42:22Z</time>
      </trkpt>
      <trkpt lat="47.64542" lon="-2.5589">
        <ele>105</ele>
        <time>2023-10-31T00:42:43Z</time>
      </trkpt>
      <trkpt lat="47.64537" lon="-2.5583">
        <ele>105</ele>
        <time>2023-10-31T00:43:38Z</time>
      </trkpt>
      <trkpt lat="47.64531" lon="-2.55807">
        <ele>105</ele>
        <time>2023-10-31T00:44:00Z</time>
      </trkpt>
      <trkpt lat="47.64493" lon="-2.55746">
        <ele>106</ele>
        <time>2023-10-31T00:45:15Z</time>
      </trkpt>
      <trkpt lat="47.64476" lon="-2.55744">
        <ele>104</ele>
        <time>2023-10-31T00:45:37Z</time>
      </trkpt>
      <trkpt lat="47.64458" lon="-2.55736">
        <ele>103</ele>
        <time>2023-10-31T00:46:02Z</time>
      </trkpt>
      <trkpt lat="47.64446" lon="-2.55743">
        <ele>102</ele>
        <time>2023-10-31T00:46:20Z</time>
      </trkpt>
      <trkpt lat="47.64431" lon="-2.55735">
        <ele>101</ele>
        <time>2023-10-31T00:46:41Z</time>
      </trkpt>
      <trkpt lat="47.64397" lon="-2.5573">
        <ele>98</ele>
        <time>2023-10-31T00:47:27Z</time>
      </trkpt>
    </trkseg>
  </trk>
</gpx>